createdAt,value
2019-04-30T00:01:18.447Z,7.05
2019-04-30T00:03:59.373Z,6.50
2019-04-30T00:06:37.700Z,6.40
2019-04-30T00:09:09.850Z,6.85
2019-04-30T00:11:46.061Z,6.83
2019-04-30T00:14:19.616Z,5.87
2019-04-30T00:16:52.423Z,6.42
2019-04-30T00:19:25.876Z,6.30
2019-04-30T00:22:00.407Z,6.03
2019-04-30T00:24:35.452Z,5.58
2019-04-30T00:27:08.591Z,5.92
2019-04-30T00:29:41.482Z,6.37
2019-04-30T00:32:15.972Z,5.97
2019-04-30T00:34:48.980Z,5.65
2019-04-30T00:37:22.940Z,5.95
2019-04-30T00:39:55.853Z,5.95
2019-04-30T00:42:29.780Z,5.83
2019-04-30T00:45:06.702Z,7.28
2019-04-30T00:47:39.455Z,6.87
2019-04-30T00:50:14.848Z,6.92
2019-04-30T00:52:48.108Z,6.05
2019-04-30T00:55:21.043Z,5.15
2019-04-30T00:57:55.506Z,5.42
2019-04-30T01:00:29.792Z,5.85
2019-04-30T01:03:09.351Z,6.00
2019-04-30T01:05:44.493Z,5.95
2019-04-30T01:08:21.180Z,6.35
2019-04-30T01:10:51.649Z,5.55
2019-04-30T01:13:24.472Z,5.90
2019-04-30T01:15:58.809Z,5.22
2019-04-30T01:18:32.188Z,5.25
2019-04-30T01:21:07.848Z,6.28
2019-04-30T01:23:43.098Z,6.35
2019-04-30T01:26:14.632Z,6.25
2019-04-30T01:28:49.390Z,6.42
2019-04-30T01:31:22.517Z,5.87
2019-04-30T01:33:55.321Z,5.62
2019-04-30T01:36:29.381Z,5.30
2019-04-30T01:39:02.422Z,5.72
2019-04-30T01:41:38.662Z,5.42
2019-04-30T01:44:12.129Z,5.78
2019-04-30T01:46:48.271Z,6.17
2019-04-30T01:49:20.386Z,5.15
2019-04-30T01:51:57.331Z,4.70
2019-04-30T01:54:29.212Z,4.92
2019-04-30T01:57:19.913Z,5.78
2019-04-30T02:00:20.349Z,5.72
2019-04-30T02:02:53.337Z,6.95
2019-04-30T02:05:26.120Z,8.45
2019-04-30T02:07:59.064Z,9.08
2019-04-30T02:10:31.989Z,9.48
2019-04-30T02:13:04.914Z,8.18
2019-04-30T02:15:39.031Z,7.25
2019-04-30T02:18:12.210Z,13.95
2019-04-30T02:20:45.122Z,12.63
2019-04-30T02:23:19.599Z,16.55
2019-04-30T02:25:52.974Z,11.35
2019-04-30T02:28:25.806Z,9.23
2019-04-30T02:31:00.417Z,11.73
2019-04-30T02:33:35.150Z,15.18
2019-04-30T02:36:29.832Z,15.43
2019-04-30T02:39:02.727Z,9.50
2019-04-30T02:41:40.870Z,7.67
2019-04-30T02:44:14.640Z,6.70
2019-04-30T02:46:50.495Z,6.83
2019-04-30T02:49:24.237Z,5.85
2019-04-30T02:51:59.504Z,7.53
2019-04-30T02:54:34.740Z,7.15
2019-04-30T02:57:14.107Z,6.12
2019-04-30T03:00:13.257Z,7.42
2019-04-30T03:02:46.271Z,7.00
2019-04-30T03:05:20.563Z,6.45
2019-04-30T03:07:53.721Z,6.05
2019-04-30T03:10:26.691Z,5.50
2019-04-30T03:13:00.145Z,7.12
2019-04-30T03:15:33.105Z,7.42
2019-04-30T03:18:24.800Z,8.63
2019-04-30T03:21:03.640Z,5.78
2019-04-30T03:23:38.983Z,6.72
2019-04-30T03:26:12.973Z,7.70
2019-04-30T03:28:45.622Z,7.33
2019-04-30T03:31:22.587Z,7.28
2019-04-30T03:33:53.027Z,7.97
2019-04-30T03:36:25.873Z,7.60
2019-04-30T03:38:59.994Z,7.08
2019-04-30T03:41:34.365Z,6.83
2019-04-30T03:44:18.568Z,8.45
2019-04-30T03:46:41.684Z,7.60
2019-04-30T03:49:14.640Z,7.30
2019-04-30T03:51:49.699Z,9.45
2019-04-30T03:54:22.047Z,9.53
2019-04-30T03:56:56.578Z,10.35
2019-04-30T03:59:30.211Z,9.03
2019-04-30T04:02:20.944Z,8.50
2019-04-30T04:05:10.049Z,6.37
2019-04-30T04:07:53.033Z,7.22
2019-04-30T04:10:43.364Z,6.20
2019-04-30T04:13:16.257Z,6.20
2019-04-30T04:15:49.995Z,6.37
2019-04-30T04:18:23.172Z,6.33
2019-04-30T04:21:08.805Z,6.95
2019-04-30T04:23:32.832Z,7.80
2019-04-30T04:26:05.114Z,6.95
2019-04-30T04:28:43.119Z,6.85
2019-04-30T04:31:12.651Z,7.17
2019-04-30T04:33:45.489Z,7.35
2019-04-30T04:36:20.011Z,7.45
2019-04-30T04:38:53.214Z,6.58
2019-04-30T04:41:26.127Z,7.70
2019-04-30T04:44:00.344Z,4.75
2019-04-30T04:46:33.358Z,6.97
2019-04-30T04:49:06.216Z,7.00
2019-04-30T04:51:42.208Z,7.10
2019-04-30T04:54:13.605Z,6.75
2019-04-30T04:56:46.515Z,7.22
2019-04-30T04:59:20.154Z,6.90
2019-04-30T05:01:53.199Z,6.70
2019-04-30T05:04:26.132Z,7.15
2019-04-30T05:07:00.086Z,7.28
2019-04-30T05:09:33.153Z,7.00
2019-04-30T05:12:06.088Z,6.42
2019-04-30T05:14:38.982Z,6.22
2019-04-30T05:17:11.791Z,6.72
2019-04-30T05:19:44.749Z,6.30
2019-04-30T05:22:19.025Z,7.17
2019-04-30T05:24:52.341Z,7.03
2019-04-30T05:27:25.370Z,7.22
2019-04-30T05:29:59.582Z,10.93
2019-04-30T05:32:32.571Z,7.10
2019-04-30T05:35:06.057Z,6.50
2019-04-30T05:37:39.054Z,6.70
2019-04-30T05:40:12.901Z,6.30
2019-04-30T05:42:46.099Z,6.60
2019-04-30T05:45:19.384Z,10.20
2019-04-30T05:47:52.446Z,9.48
2019-04-30T05:50:25.388Z,6.62
2019-04-30T05:52:59.211Z,5.50
2019-04-30T05:55:33.743Z,6.45
2019-04-30T05:58:09.182Z,5.92
2019-04-30T06:00:42.792Z,5.92
2019-04-30T06:04:33.650Z,6.17
2019-04-30T06:07:39.644Z,6.85
2019-04-30T06:10:59.767Z,5.55
2019-04-30T06:13:50.575Z,5.95
2019-04-30T06:16:25.700Z,6.65
2019-04-30T06:18:58.726Z,6.40
2019-04-30T06:21:32.006Z,6.58
2019-04-30T06:24:04.810Z,5.10
2019-04-30T06:26:39.394Z,5.60
2019-04-30T06:29:18.943Z,6.70
2019-04-30T06:31:51.155Z,6.45
2019-04-30T06:34:25.270Z,6.20
2019-04-30T06:36:59.582Z,4.60
2019-04-30T06:39:35.937Z,6.00
2019-04-30T06:42:12.783Z,4.95
2019-04-30T06:44:44.341Z,5.83
2019-04-30T06:47:32.350Z,6.15
2019-04-30T06:49:56.465Z,6.92
2019-04-30T06:52:35.309Z,6.10
2019-04-30T06:55:33.683Z,7.53
2019-04-30T06:58:16.839Z,6.80
2019-04-30T07:01:09.505Z,5.65
2019-04-30T07:04:23.229Z,5.75
2019-04-30T07:07:18.298Z,6.08
2019-04-30T07:10:53.102Z,7.08
2019-04-30T07:13:36.823Z,4.80
2019-04-30T07:25:35.867Z,5.35
2019-04-30T07:28:14.655Z,6.03
2019-04-30T07:31:11.625Z,6.30
2019-04-30T07:33:50.658Z,4.12
2019-04-30T07:39:14.877Z,6.35
2019-04-30T07:42:38.214Z,6.00
2019-04-30T07:46:20.602Z,6.83
2019-04-30T07:49:56.521Z,5.90
2019-04-30T07:53:18.692Z,5.92
2019-04-30T07:57:36.186Z,4.87
2019-04-30T08:00:35.676Z,4.25
2019-04-30T08:09:38.370Z,5.00
2019-04-30T09:02:15.974Z,5.08
2019-04-30T09:05:55.047Z,4.80
2019-04-30T09:30:13.211Z,4.03
2019-04-30T09:34:20.735Z,4.28
2019-04-30T09:41:13.116Z,3.92
2019-04-30T09:54:21.982Z,3.95
2019-04-30T10:00:39.350Z,4.17
2019-04-30T10:06:39.834Z,4.33
2019-04-30T10:09:50.636Z,4.22
2019-04-30T10:13:18.421Z,3.47
2019-04-30T10:17:57.623Z,4.20
2019-04-30T10:21:23.696Z,4.33
2019-04-30T10:23:41.504Z,4.80
2019-04-30T10:26:48.404Z,4.50
2019-04-30T10:30:03.226Z,3.95
2019-04-30T10:32:40.920Z,4.47
2019-04-30T10:46:59.636Z,3.58
2019-04-30T10:50:06.873Z,3.50
2019-04-30T11:10:45.668Z,4.10
2019-04-30T11:20:47.057Z,3.37
2019-04-30T11:27:37.318Z,5.28
2019-04-30T11:37:58.407Z,4.50
2019-04-30T11:40:49.389Z,4.22
2019-04-30T11:44:09.297Z,3.87
2019-04-30T11:47:11.807Z,4.28
2019-04-30T11:50:04.299Z,4.47
2019-04-30T11:56:58.818Z,4.60
2019-04-30T12:08:10.982Z,4.53
2019-04-30T12:25:12.074Z,4.95
2019-04-30T12:28:36.947Z,3.58
2019-04-30T12:32:11.095Z,4.83
2019-04-30T12:35:10.050Z,3.15
2019-04-30T12:37:52.089Z,4.37
2019-04-30T12:40:32.397Z,4.12
2019-04-30T12:44:08.693Z,4.53
2019-04-30T12:46:50.690Z,4.53
2019-04-30T12:49:56.207Z,4.00
2019-04-30T12:52:43.648Z,4.72
2019-04-30T12:56:00.137Z,5.08
2019-04-30T12:58:58.029Z,4.00
2019-04-30T13:02:09.005Z,3.98
2019-04-30T13:05:04.051Z,3.92
2019-04-30T13:08:13.052Z,3.85
2019-04-30T13:11:30.829Z,4.28
2019-04-30T13:14:10.621Z,4.08
2019-04-30T13:17:00.189Z,4.37
2019-04-30T13:19:41.071Z,3.83
2019-04-30T13:22:21.101Z,4.20
2019-04-30T13:25:03.083Z,4.90
2019-04-30T13:28:00.499Z,4.03
2019-04-30T13:30:32.604Z,4.33
2019-04-30T13:33:54.676Z,4.22
2019-04-30T13:36:41.137Z,4.83
2019-04-30T13:39:29.261Z,5.05
2019-04-30T13:42:29.507Z,3.85
2019-04-30T13:45:08.949Z,4.37
2019-04-30T13:48:10.672Z,3.47
2019-04-30T13:50:57.326Z,3.87
2019-04-30T13:54:22.373Z,3.83
2019-04-30T13:57:34.503Z,3.75
2019-04-30T14:00:41.628Z,3.47
2019-04-30T14:06:29.759Z,4.10
2019-04-30T14:09:42.751Z,4.00
2019-04-30T14:16:35.305Z,3.30
2019-04-30T14:35:35.063Z,3.87
2019-04-30T14:38:08.990Z,3.40
2019-04-30T14:41:01.003Z,3.58
2019-04-30T14:43:56.022Z,3.27
2019-04-30T14:47:12.380Z,3.30
2019-04-30T14:50:18.587Z,3.67
2019-04-30T14:53:30.611Z,4.65
2019-04-30T14:57:10.845Z,3.30
2019-04-30T14:59:39.017Z,3.35
2019-04-30T15:06:06.408Z,3.10
2019-04-30T15:08:55.732Z,3.98
2019-04-30T15:11:46.389Z,3.40
2019-04-30T15:14:41.018Z,3.05
2019-04-30T15:17:39.221Z,2.92
2019-04-30T15:20:14.530Z,2.67
2019-04-30T15:22:58.720Z,2.85
2019-04-30T15:25:38.760Z,2.87
2019-04-30T15:28:14.907Z,3.20
2019-04-30T15:30:58.777Z,2.60
2019-04-30T15:34:13.206Z,3.80
2019-04-30T15:36:59.018Z,2.90
2019-04-30T15:39:48.986Z,2.90
2019-04-30T15:42:55.089Z,3.25
2019-04-30T15:45:39.661Z,3.58
2019-04-30T15:48:40.795Z,3.42
2019-04-30T15:51:17.962Z,3.92
2019-04-30T15:53:52.648Z,2.92
2019-04-30T15:56:35.361Z,2.77
2019-04-30T15:59:28.860Z,4.65
2019-04-30T16:02:12.872Z,2.77
2019-04-30T16:05:11.863Z,3.67
2019-04-30T16:08:09.588Z,2.98
2019-04-30T16:11:00.470Z,2.58
2019-04-30T16:13:39.536Z,2.70
2019-04-30T16:16:13.298Z,2.40
2019-04-30T16:18:50.215Z,3.25
2019-04-30T16:21:23.771Z,2.80
2019-04-30T16:24:05.781Z,2.25
2019-04-30T16:26:49.930Z,2.55
2019-04-30T16:29:30.997Z,3.30
2019-04-30T16:32:04.781Z,2.65
2019-04-30T16:34:38.864Z,4.60
2019-04-30T16:37:19.996Z,3.22
2019-04-30T16:40:21.962Z,3.60
2019-04-30T16:42:58.209Z,3.08
2019-04-30T16:45:41.559Z,2.62
2019-04-30T16:48:14.904Z,2.70
2019-04-30T16:50:51.132Z,2.80
2019-04-30T16:53:25.567Z,2.60
2019-04-30T16:55:58.687Z,2.87
2019-04-30T16:58:50.413Z,2.62
2019-04-30T17:01:23.678Z,2.67
2019-04-30T17:05:11.175Z,3.20
2019-04-30T17:07:50.623Z,2.83
2019-04-30T17:11:01.359Z,3.17
2019-04-30T17:13:51.426Z,3.00
2019-04-30T17:16:26.651Z,3.42
2019-04-30T17:19:04.625Z,2.55
2019-04-30T17:21:42.678Z,3.00
2019-04-30T17:24:21.882Z,3.00
2019-04-30T17:27:19.256Z,2.95
2019-04-30T17:29:45.819Z,2.98
2019-04-30T17:32:19.089Z,3.08
2019-04-30T17:34:55.422Z,2.87
2019-04-30T17:37:31.547Z,3.40
2019-04-30T17:40:14.022Z,3.00
2019-04-30T17:42:47.533Z,2.95
2019-04-30T17:45:23.686Z,3.08
2019-04-30T17:47:58.571Z,3.60
2019-04-30T17:50:32.352Z,2.77
2019-04-30T17:53:09.076Z,3.00
2019-04-30T17:55:44.960Z,2.90
2019-04-30T17:58:20.688Z,3.27
2019-04-30T18:00:56.505Z,2.90
2019-04-30T18:03:30.121Z,3.10
2019-04-30T18:06:09.025Z,3.58
2019-04-30T18:08:43.899Z,3.80
2019-04-30T18:11:20.080Z,3.33
2019-04-30T18:13:53.738Z,3.17
2019-04-30T18:16:29.950Z,3.25
2019-04-30T18:19:10.047Z,2.98
2019-04-30T18:21:51.086Z,3.22
2019-04-30T18:24:46.298Z,2.85
2019-04-30T18:27:29.646Z,7.15
2019-04-30T18:30:12.993Z,8.18
2019-04-30T18:34:09.397Z,6.17
2019-04-30T18:37:21.401Z,6.90
2019-04-30T18:47:37.513Z,3.90
2019-04-30T18:50:29.815Z,4.10
2019-04-30T18:53:28.441Z,3.72
2019-04-30T18:56:19.150Z,3.52
2019-04-30T18:59:15.009Z,4.03
2019-04-30T19:02:19.146Z,4.28
2019-04-30T19:04:55.113Z,3.92
2019-04-30T19:07:37.022Z,3.85
2019-04-30T19:11:00.514Z,3.70
2019-04-30T19:14:24.602Z,4.47
2019-04-30T19:18:23.438Z,3.92
2019-04-30T19:24:56.084Z,4.33
2019-04-30T19:27:22.526Z,4.35
2019-04-30T19:29:59.511Z,5.08
2019-04-30T19:32:39.081Z,5.25
2019-04-30T19:35:15.858Z,4.70
2019-04-30T19:37:52.000Z,4.58
2019-04-30T19:40:28.640Z,4.37
2019-04-30T19:43:01.870Z,4.17
2019-04-30T19:45:36.805Z,4.58
2019-04-30T19:48:10.084Z,4.12
2019-04-30T19:50:43.184Z,4.87
2019-04-30T19:53:19.936Z,4.05
2019-04-30T19:55:51.955Z,4.95
2019-04-30T19:58:44.878Z,3.80
2019-04-30T20:01:01.709Z,4.12
2019-04-30T20:03:36.409Z,4.80
2019-04-30T20:06:09.939Z,4.90
2019-04-30T20:08:45.900Z,4.67
2019-04-30T20:11:18.912Z,4.17
2019-04-30T20:13:54.633Z,3.47
2019-04-30T20:16:27.723Z,4.83
2019-04-30T20:19:03.859Z,4.80
2019-04-30T20:21:48.200Z,4.97
2019-04-30T20:24:14.778Z,4.62
2019-04-30T20:26:50.221Z,5.03
2019-04-30T20:29:22.901Z,4.83
2019-04-30T20:31:56.015Z,4.20
2019-04-30T20:34:29.404Z,4.42
2019-04-30T20:37:02.681Z,4.22
2019-04-30T20:40:00.539Z,4.37
2019-04-30T20:42:33.847Z,4.67
2019-04-30T20:45:09.071Z,3.90
2019-04-30T20:47:42.822Z,5.35
2019-04-30T20:50:16.327Z,4.95
2019-04-30T20:52:49.601Z,5.22
2019-04-30T20:55:24.256Z,4.80
2019-04-30T20:57:59.348Z,4.90
2019-04-30T21:00:31.977Z,5.58
2019-04-30T21:03:05.272Z,4.72
2019-04-30T21:05:38.637Z,4.67
2019-04-30T21:08:11.806Z,5.67
2019-04-30T21:10:45.152Z,5.00
2019-04-30T21:13:19.360Z,4.87
2019-04-30T21:15:55.327Z,5.17
2019-04-30T21:18:30.528Z,5.45
2019-04-30T21:21:03.165Z,4.72
2019-04-30T21:23:36.457Z,4.67
2019-04-30T21:26:09.468Z,5.17
2019-04-30T21:28:43.307Z,4.80
2019-04-30T21:31:35.650Z,5.45
2019-04-30T21:34:15.545Z,4.95
2019-04-30T21:36:49.604Z,4.62
2019-04-30T21:39:22.795Z,5.20
2019-04-30T21:41:55.992Z,4.35
2019-04-30T21:44:29.375Z,5.28
2019-04-30T21:47:02.711Z,4.58
2019-04-30T21:49:36.288Z,5.55
2019-04-30T21:52:13.590Z,5.28
2019-04-30T21:54:48.679Z,5.60
2019-04-30T21:57:39.168Z,5.40
2019-04-30T22:00:18.523Z,5.95
2019-04-30T22:02:54.201Z,5.00
2019-04-30T22:05:31.804Z,5.97
2019-04-30T22:08:11.949Z,4.97
2019-04-30T22:10:55.564Z,5.20
2019-04-30T22:13:34.628Z,5.55
2019-04-30T22:16:10.421Z,5.97
2019-04-30T22:18:46.857Z,5.90
2019-04-30T22:21:30.449Z,5.40
2019-04-30T22:24:06.105Z,5.70
2019-04-30T22:26:41.029Z,4.45
2019-04-30T22:29:38.426Z,5.37
2019-04-30T22:32:00.447Z,5.83
2019-04-30T22:34:34.296Z,5.70
2019-04-30T22:37:08.875Z,5.53
2019-04-30T22:39:51.847Z,5.65
2019-04-30T22:42:42.331Z,6.08
2019-04-30T22:45:26.679Z,5.83
2019-04-30T22:48:00.139Z,5.67
2019-04-30T22:50:34.526Z,5.70
2019-04-30T22:53:07.993Z,6.08
2019-04-30T22:55:41.308Z,5.30
2019-04-30T22:58:15.153Z,5.83
2019-04-30T23:00:48.558Z,5.95
2019-04-30T23:03:26.002Z,5.50
2019-04-30T23:06:03.653Z,5.55
2019-04-30T23:08:37.268Z,5.25
2019-04-30T23:11:11.167Z,5.15
2019-04-30T23:13:47.994Z,6.08
2019-04-30T23:16:24.096Z,5.28
2019-04-30T23:19:02.675Z,5.83
2019-04-30T23:24:54.212Z,4.83
2019-04-30T23:27:29.013Z,5.47
2019-04-30T23:30:04.857Z,5.62
2019-04-30T23:32:54.213Z,5.87
2019-04-30T23:35:31.077Z,4.92
2019-04-30T23:38:17.506Z,5.90
2019-04-30T23:40:56.558Z,5.17
2019-04-30T23:43:35.725Z,5.25
2019-04-30T23:46:09.189Z,5.58
2019-04-30T23:48:48.518Z,5.72
2019-04-30T23:54:42.239Z,5.60
2019-04-30T23:57:16.534Z,6.03
2019-04-30T23:59:52.996Z,5.45
